Aérodrome :
LOGIN :

S'inscrire | Disclaimer

   EN    FR    IT 

 










Légende :    VFR   VFR Marginal   IFR   IFR Intensif   IFR Très Intensif
Visi : 
Plafond : 
>= 8 km
>= 3000ft
5 à 8 km
1000 à 3000 ft
1500m à 5 km
500 à 1000 ft
800 à 1500m
200 à 500 ft
< 800m
< 200 ft
Symboles :   Orages  Brouillard  Fortes neiges  Fortes précipitations  Vent > 20 kt
SIGMETs :   Divers  Orages  Givrage  Turbulence  Onde Orograph.  Cendres Volcan.






- Altitude de l'aérodrome : 160 ft
- Code IATA : FMO


EDDG - Münster Osnabrück Int.

DERNIER METAR :
  • 011920Z AUTO 06003KT 360V120 9999 BKN014 M02/M05 Q1009 NOSIG

METARs EXPIRÉS :
  • 011850Z AUTO 05004KT 350V110 9999 BKN013 M02/M05 Q1009 NOSIG
  • 011820Z AUTO 06005KT 320V120 9999 OVC013 M02/M05 Q1009 NOSIG
  • 011750Z AUTO 03006KT 010V080 9999 OVC013 M02/M05 Q1009 NOSIG
  • 011720Z AUTO 03005KT 360V080 9999 OVC013 M02/M04 Q1009 NOSIG
  • 011650Z AUTO 02005KT 350V080 9999 OVC013 M02/M04 Q1008 NOSIG
  • 011620Z AUTO 05003KT 360V100 9999 OVC013 M02/M05 Q1008 TEMPO OVC009
  • 011550Z AUTO 04003KT 360V150 9999 OVC014 M02/M05 Q1008 BECMG OVC009
  • 011520Z AUTO 08003KT 010V140 9999 OVC015 M02/M05 Q1008 BECMG OVC013
  • 011450Z AUTO 04004KT 350V090 9999 OVC015 M02/M05 Q1008 BECMG OVC013

TAF TAF EDDG
Valide du 01 à 18h jusqu'au 02 à 18h UTC


011700Z 0118/0218 03004KT 9999 OVC012
PROB30
TEMPO 0202/0206 3000 BR BKN008
BECMG 0206/0209 28005KT BKN007
TEMPO 0206/0214 1200 -SN BR BKN002
TEMPO 0214/0218 4000 BR



MET'MAP, la Météo Aéronautique d'un coup d'oeil ! - Copyright ORBIFLY Décembre 2007 - Disclaimer

ORBIFLY MET'MAP TEAM :

Programmation & Développement : Alexandra Zaïnal
Sur une idée originale de : Baudouin d'Aumeries
Soutien technique & logistique : Manuel Goepfert
Assistance : Marc-Olivier Méhu




SOURCES & CREDITS :

   NOAA